Time;durP1;ratioP1;P1;durP2;ratioP2;P2;SDS_P1;SDS_P2;PMS_P1;PMS_P2;Temp;Humidity;BMP_temperature;BMP_pressure;BME280_temperature;BME280_humidity;BME280_pressure;Samples;Min_cycle;Max_cycle;Signal;HPM_P1;HPM_P2
2023/08/09 00:01:05;;;;;;;2.33;2.13;;;18.70;99.90;;;;;;5014002;28;20190;-84
2023/08/09 00:03:31;;;;;;;2.57;2.00;;;18.80;99.90;;;;;;5014330;28;20190;-85
2023/08/09 00:05:57;;;;;;;2.53;2.03;;;18.40;99.80;;;;;;5013798;28;20281;-85
2023/08/09 00:08:22;;;;;;;2.70;2.30;;;20.20;99.90;;;;;;5009879;28;20186;-84
2023/08/09 00:10:48;;;;;;;2.70;2.17;;;18.50;99.90;;;;;;5016479;28;20285;-84
2023/08/09 00:13:13;;;;;;;4.37;2.40;;;18.80;99.90;;;;;;5012056;28;20563;-85
2023/08/09 00:15:39;;;;;;;4.53;2.40;;;18.90;99.90;;;;;;5009890;28;20225;-84
2023/08/09 00:18:04;;;;;;;2.30;2.10;;;18.80;99.90;;;;;;5014010;28;20218;-84
2023/08/09 00:20:30;;;;;;;2.17;2.07;;;18.40;99.90;;;;;;5017120;28;20189;-85
2023/08/09 00:22:56;;;;;;;2.40;1.87;;;18.60;99.90;;;;;;5011391;28;20277;-84
2023/08/09 00:25:21;;;;;;;2.37;2.00;;;18.80;99.90;;;;;;5009064;28;20189;-84
2023/08/09 00:27:47;;;;;;;2.40;2.20;;;18.70;99.90;;;;;;5012474;28;20214;-84
2023/08/09 00:30:13;;;;;;;2.97;1.90;;;18.90;99.90;;;;;;5015408;28;20658;-84
2023/08/09 00:32:40;;;;;;;3.22;2.03;;;18.60;99.90;;;;;;5010524;28;20194;-84
2023/08/09 00:35:06;;;;;;;3.50;2.17;;;18.30;99.90;;;;;;5015520;28;20289;-84
2023/08/09 00:37:32;;;;;;;2.65;2.45;;;18.30;99.90;;;;;;5018676;28;20248;-85
2023/08/09 00:39:58;;;;;;;2.92;2.50;;;18.80;99.90;;;;;;5010408;28;20191;-85
2023/08/09 00:42:24;;;;;;;2.17;1.97;;;18.30;99.90;;;;;;5015261;28;20245;-85
2023/08/09 00:44:50;;;;;;;2.13;1.90;;;18.60;99.90;;;;;;5010533;28;20442;-85
2023/08/09 00:47:16;;;;;;;4.33;2.40;;;18.70;99.90;;;;;;5012944;28;20221;-84
2023/08/09 00:49:42;;;;;;;2.30;2.10;;;18.30;99.90;;;;;;5016257;28;20509;-84
2023/08/09 00:52:08;;;;;;;2.35;1.63;;;18.60;99.90;;;;;;5016643;28;20202;-85
2023/08/09 00:54:35;;;;;;;3.60;2.20;;;18.70;99.90;;;;;;5011797;28;20210;-85
2023/08/09 00:57:01;;;;;;;2.88;1.77;;;18.80;99.90;;;;;;5032116;28;20301;-84
2023/08/09 00:59:26;;;;;;;1.87;1.77;;;18.90;99.90;;;;;;5013071;28;20193;-85
2023/08/09 01:01:52;;;;;;;4.30;2.63;;;18.80;99.90;;;;;;5014312;28;20197;-85
2023/08/09 01:04:17;;;;;;;2.33;1.93;;;18.90;99.90;;;;;;5015104;28;20186;-84
2023/08/09 01:06:59;;;;;;;2.50;2.30;;;18.80;99.90;;;;;;5015896;28;20201;-85
2023/08/09 01:10:10;;;;;;;2.30;2.10;;;18.70;99.90;;;;;;5004537;28;20560;-85
2023/08/09 01:12:41;;;;;;;2.20;2.00;;;18.40;99.90;;;;;;4974574;28;20201;-85
2023/08/09 01:15:08;;;;;;;3.35;2.05;;;18.90;99.90;;;;;;5014994;28;20308;-85
2023/08/09 01:17:34;;;;;;;3.55;2.22;;;18.50;99.90;;;;;;5030136;28;20194;-85
2023/08/09 01:20:01;;;;;;;2.67;2.30;;;18.40;99.90;;;;;;5031607;28;20254;-85
2023/08/09 01:22:30;;;;;;;4.25;2.10;;;18.60;99.90;;;;;;5012655;28;20263;-84
2023/08/09 01:24:58;;;;;;;2.85;2.17;;;18.70;99.90;;;;;;5014553;28;20190;-84
2023/08/09 01:27:23;;;;;;;2.55;2.28;;;18.60;99.90;;;;;;5022305;28;20273;-84
2023/08/09 01:29:49;;;;;;;2.30;2.10;;;19.00;99.90;;;;;;5007723;28;20308;-85
2023/08/09 01:32:15;;;;;;;2.10;2.00;;;18.40;99.90;;;;;;5017385;28;20527;-84
2023/08/09 01:34:41;;;;;;;3.60;2.10;;;18.70;99.90;;;;;;5016230;28;20689;-84
2023/08/09 01:37:40;;;;;;;2.43;1.90;;;18.40;99.90;;;;;;5013476;28;20206;-85
2023/08/09 01:40:09;;;;;;;2.20;2.10;;;18.00;99.90;;;;;;5008274;28;20182;-84
2023/08/09 01:42:40;;;;;;;2.28;2.05;;;18.00;99.90;;;;;;5006143;28;20178;-84
2023/08/09 01:45:10;;;;;;;2.53;2.33;;;18.40;99.90;;;;;;5013176;28;20190;-84
2023/08/09 01:47:36;;;;;;;2.30;2.10;;;17.70;99.90;;;;;;5020807;28;20247;-84
2023/08/09 01:50:04;;;;;;;2.72;2.53;;;18.30;99.90;;;;;;5034788;28;20186;-85
2023/08/09 01:52:29;;;;;;;3.08;2.47;;;17.90;99.90;;;;;;5023381;28;20185;-85
2023/08/09 01:54:55;;;;;;;2.50;2.13;;;18.20;99.90;;;;;;5018055;28;20207;-85
2023/08/09 01:57:21;;;;;;;2.60;2.30;;;18.30;99.90;;;;;;5034126;28;20201;-84
2023/08/09 01:59:46;;;;;;;3.00;2.30;;;18.30;99.90;;;;;;5032162;28;20546;-85
2023/08/09 02:02:12;;;;;;;2.40;2.20;;;18.30;99.90;;;;;;5022200;28;20434;-85
2023/08/09 02:04:38;;;;;;;3.70;3.40;;;18.10;99.90;;;;;;5022337;28;20190;-85
2023/08/09 02:07:04;;;;;;;3.30;2.40;;;17.90;99.90;;;;;;5022672;28;20461;-84
2023/08/09 02:09:30;;;;;;;3.67;2.47;;;18.00;99.90;;;;;;5043525;28;20217;-85
2023/08/09 02:11:55;;;;;;;2.67;2.47;;;18.00;99.90;;;;;;5025269;28;20190;-84
2023/08/09 02:14:21;;;;;;;4.33;1.90;;;18.10;99.90;;;;;;5025243;28;20479;-84
2023/08/09 02:16:47;;;;;;;2.60;2.40;;;18.00;99.90;;;;;;5025466;28;20205;-84
2023/08/09 02:19:12;;;;;;;8.33;2.80;;;18.00;99.90;;;;;;5024039;28;20203;-85
2023/08/09 02:21:40;;;;;;;3.00;2.70;;;17.30;99.90;;;;;;5024206;28;20187;-85
2023/08/09 02:24:07;;;;;;;4.28;2.67;;;17.90;99.90;;;;;;5021362;28;20175;-85
2023/08/09 02:26:33;;;;;;;3.03;2.67;;;17.50;99.90;;;;;;5026595;28;20205;-85
2023/08/09 02:29:00;;;;;;;2.17;1.92;;;17.50;99.90;;;;;;5022039;28;20206;-85
2023/08/09 02:31:26;;;;;;;2.50;2.30;;;17.40;99.90;;;;;;5020516;28;20236;-85
2023/08/09 02:33:52;;;;;;;2.37;2.17;;;17.80;99.90;;;;;;5018603;28;20202;-85
2023/08/09 02:36:17;;;;;;;2.30;2.10;;;17.50;99.90;;;;;;5019208;28;20505;-85
2023/08/09 02:38:43;;;;;;;2.60;2.30;;;17.90;99.90;;;;;;5016890;28;20236;-85
2023/08/09 02:41:09;;;;;;;2.10;1.90;;;17.40;99.90;;;;;;5029556;28;20205;-84
2023/08/09 02:43:35;;;;;;;2.22;1.92;;;17.80;99.90;;;;;;5011152;28;20190;-84
2023/08/09 02:46:01;;;;;;;2.40;2.20;;;17.80;99.90;;;;;;5013705;28;20225;-85
2023/08/09 02:48:26;;;;;;;3.10;2.60;;;17.70;99.90;;;;;;5014083;28;20193;-84
2023/08/09 02:50:52;;;;;;;2.73;2.53;;;17.70;99.90;;;;;;5022558;28;20665;-85
2023/08/09 02:53:17;;;;;;;2.83;2.23;;;17.60;99.90;;;;;;5015825;28;20182;-84
2023/08/09 02:55:44;;;;;;;2.37;2.17;;;17.70;99.90;;;;;;5016522;28;20245;-85
2023/08/09 02:58:10;;;;;;;2.67;2.35;;;17.70;99.90;;;;;;5014885;28;20236;-84
2023/08/09 03:00:36;;;;;;;3.05;2.00;;;18.10;99.90;;;;;;5011844;28;20585;-84
2023/08/09 03:03:04;;;;;;;3.58;2.42;;;17.70;99.90;;;;;;5030696;28;20808;-84
2023/08/09 03:05:30;;;;;;;2.25;2.10;;;17.30;99.90;;;;;;5036923;28;20178;-84
2023/08/09 03:07:56;;;;;;;2.25;2.05;;;17.50;99.90;;;;;;5009069;28;20215;-84
2023/08/09 03:10:22;;;;;;;2.80;2.10;;;17.50;99.90;;;;;;5018063;28;20185;-85
2023/08/09 03:12:48;;;;;;;2.78;2.38;;;17.30;99.90;;;;;;5008671;28;20448;-84
2023/08/09 03:15:15;;;;;;;2.93;2.27;;;17.20;99.90;;;;;;5015899;28;20583;-85
2023/08/09 03:17:41;;;;;;;2.70;2.50;;;17.70;99.90;;;;;;5013881;28;21116;-84
2023/08/09 03:20:13;;;;;;;2.30;2.10;;;17.70;99.90;;;;;;5014764;28;20229;-84
2023/08/09 03:22:42;;;;;;;3.20;2.55;;;17.60;99.90;;;;;;5019049;28;20182;-83
2023/08/09 03:25:09;;;;;;;2.28;2.08;;;17.70;99.90;;;;;;5014983;28;20616;-85
2023/08/09 03:27:35;;;;;;;2.70;2.50;;;17.40;99.90;;;;;;5009777;28;20209;-84
2023/08/09 03:30:01;;;;;;;2.90;2.70;;;17.40;99.90;;;;;;5013174;28;20282;-85
2023/08/09 03:32:27;;;;;;;3.78;2.65;;;19.60;99.90;;;;;;5007107;28;20182;-84
2023/08/09 03:34:52;;;;;;;2.90;2.60;;;17.10;99.90;;;;;;5034277;28;20214;-84
2023/08/09 03:37:18;;;;;;;3.23;2.50;;;17.40;99.90;;;;;;5017566;28;20205;-85
2023/08/09 03:39:43;;;;;;;2.90;2.70;;;18.50;99.90;;;;;;5013115;28;20646;-85
2023/08/09 03:42:09;;;;;;;2.17;1.97;;;17.70;99.90;;;;;;5015691;28;20186;-85
2023/08/09 03:44:34;;;;;;;2.20;2.00;;;17.60;99.90;;;;;;5011673;28;20267;-85
2023/08/09 03:47:00;;;;;;;3.60;3.07;;;17.90;99.90;;;;;;5009636;28;20306;-84
2023/08/09 03:49:25;;;;;;;2.30;2.10;;;17.10;99.90;;;;;;5009176;28;20214;-85
2023/08/09 03:51:51;;;;;;;3.00;2.30;;;17.50;99.90;;;;;;5015767;28;20980;-84
2023/08/09 03:54:16;;;;;;;2.30;2.10;;;17.10;99.90;;;;;;5012152;28;20562;-84
2023/08/09 03:56:42;;;;;;;2.13;1.90;;;17.30;99.90;;;;;;5012731;28;20233;-85
2023/08/09 03:59:08;;;;;;;2.40;2.20;;;17.50;99.90;;;;;;5010269;28;20186;-84
2023/08/09 04:01:33;;;;;;;4.50;2.30;;;17.30;99.90;;;;;;5013393;28;20189;-84
2023/08/09 04:03:59;;;;;;;3.13;2.27;;;17.50;99.90;;;;;;5012170;28;20210;-85
2023/08/09 04:06:25;;;;;;;3.27;2.70;;;17.50;99.90;;;;;;5012471;28;20226;-85
2023/08/09 04:08:50;;;;;;;2.30;1.93;;;17.50;99.90;;;;;;5009936;28;20953;-84
2023/08/09 04:11:16;;;;;;;2.40;2.20;;;17.30;99.90;;;;;;5011124;28;20685;-84
2023/08/09 04:13:41;;;;;;;2.43;2.23;;;17.80;99.90;;;;;;5014609;28;20188;-84
2023/08/09 04:16:07;;;;;;;2.73;2.50;;;17.40;99.90;;;;;;5015769;28;20206;-85
2023/08/09 04:18:33;;;;;;;2.43;2.30;;;17.20;99.90;;;;;;5014286;28;20542;-84
2023/08/09 04:20:58;;;;;;;2.80;2.60;;;17.40;99.90;;;;;;5014587;28;20185;-84
2023/08/09 04:23:24;;;;;;;2.40;2.20;;;17.60;99.90;;;;;;5008799;28;20448;-85
2023/08/09 04:25:50;;;;;;;2.10;1.90;;;17.30;99.90;;;;;;5011016;28;20182;-84
2023/08/09 04:28:15;;;;;;;2.40;2.20;;;17.70;99.90;;;;;;5010181;28;20461;-84
2023/08/09 04:30:41;;;;;;;2.70;2.50;;;17.40;99.90;;;;;;5015416;28;20205;-84
2023/08/09 04:33:07;;;;;;;2.45;2.25;;;17.90;99.90;;;;;;5011080;28;20189;-85
2023/08/09 04:35:33;;;;;;;3.10;2.47;;;17.30;99.90;;;;;;5008787;28;20206;-85
2023/08/09 04:38:00;;;;;;;2.93;2.40;;;17.70;99.90;;;;;;5012017;28;20212;-84
2023/08/09 04:40:25;;;;;;;2.80;2.58;;;17.20;99.90;;;;;;5011649;28;20432;-85
2023/08/09 04:42:51;;;;;;;3.80;2.37;;;17.30;99.90;;;;;;5013117;28;20251;-85
2023/08/09 04:45:17;;;;;;;2.83;2.23;;;17.70;99.90;;;;;;5033134;28;20825;-85
2023/08/09 04:47:43;;;;;;;2.50;2.30;;;17.30;99.90;;;;;;5015173;28;20451;-85
2023/08/09 04:50:08;;;;;;;3.83;2.87;;;17.60;99.90;;;;;;5014824;28;20553;-85
2023/08/09 04:52:35;;;;;;;2.77;2.00;;;17.40;99.90;;;;;;5011303;28;20236;-85
2023/08/09 04:55:03;;;;;;;5.72;4.95;;;18.90;99.90;;;;;;5012187;28;20488;-85
2023/08/09 04:57:29;;;;;;;3.50;3.15;;;17.50;99.90;;;;;;5006392;28;20285;-85
2023/08/09 04:59:55;;;;;;;3.15;2.85;;;18.00;99.90;;;;;;4993054;28;20716;-85
2023/08/09 05:02:21;;;;;;;2.83;2.63;;;18.10;99.90;;;;;;5022212;28;20312;-85
2023/08/09 05:04:46;;;;;;;4.00;2.70;;;17.60;99.90;;;;;;5013177;28;20181;-85
2023/08/09 05:07:12;;;;;;;3.17;2.87;;;17.70;99.90;;;;;;5012571;28;20205;-85
2023/08/09 05:09:38;;;;;;;3.05;2.70;;;18.10;99.90;;;;;;5008035;28;20179;-85
2023/08/09 05:12:04;;;;;;;4.10;2.90;;;18.10;99.90;;;;;;5011744;28;20174;-85
2023/08/09 05:14:30;;;;;;;3.70;2.30;;;17.60;99.90;;;;;;5010115;28;20214;-85
2023/08/09 05:16:55;;;;;;;3.20;2.67;;;17.70;99.90;;;;;;5013989;28;20210;-85
2023/08/09 05:19:21;;;;;;;3.43;2.70;;;17.90;99.90;;;;;;5010997;28;20638;-85
2023/08/09 05:21:47;;;;;;;3.00;2.70;;;18.00;99.90;;;;;;5010699;28;20535;-85
2023/08/09 05:24:14;;;;;;;4.82;2.40;;;17.70;99.90;;;;;;5008866;28;20181;-85
2023/08/09 05:26:39;;;;;;;3.00;2.80;;;18.10;99.90;;;;;;5010213;28;20210;-85
2023/08/09 05:29:05;;;;;;;2.70;2.50;;;17.60;99.90;;;;;;5007285;28;20210;-85
2023/08/09 05:31:30;;;;;;;3.00;2.80;;;18.00;99.90;;;;;;5009090;28;20199;-85
2023/08/09 05:33:56;;;;;;;2.50;2.20;;;18.10;99.90;;;;;;5018244;28;20210;-83
2023/08/09 05:36:22;;;;;;;3.20;2.10;;;18.10;99.90;;;;;;5013290;28;20229;-87
2023/08/09 05:38:48;;;;;;;3.15;2.20;;;17.80;99.90;;;;;;5015145;28;20186;-86
2023/08/09 05:41:14;;;;;;;2.72;2.50;;;18.40;99.90;;;;;;5015636;28;20650;-86
2023/08/09 05:43:39;;;;;;;2.07;1.97;;;18.00;99.90;;;;;;5013264;28;20197;-87
2023/08/09 05:46:05;;;;;;;2.70;2.50;;;18.30;99.90;;;;;;5013361;28;20206;-82
2023/08/09 05:48:31;;;;;;;3.30;2.40;;;18.50;99.90;;;;;;5012210;28;20186;-87
2023/08/09 05:50:56;;;;;;;2.87;2.67;;;18.40;99.90;;;;;;5026621;28;20181;-87
2023/08/09 05:53:22;;;;;;;3.67;2.20;;;18.70;99.90;;;;;;5010770;28;20560;-86
2023/08/09 05:55:47;;;;;;;3.20;2.30;;;18.70;99.90;;;;;;5015597;28;20575;-85
2023/08/09 05:58:14;;;;;;;2.80;2.23;;;18.80;99.90;;;;;;5015287;28;20194;-86
2023/08/09 06:00:40;;;;;;;2.45;2.25;;;18.10;99.90;;;;;;5008877;28;20181;-86
2023/08/09 06:03:06;;;;;;;3.50;3.00;;;19.00;99.90;;;;;;5011851;28;20206;-83
2023/08/09 06:05:32;;;;;;;3.58;2.20;;;18.60;99.90;;;;;;5024967;28;20184;-91
2023/08/09 06:07:57;;;;;;;2.53;2.33;;;19.00;99.90;;;;;;5034060;28;20639;-86
2023/08/09 06:10:25;;;;;;;2.77;2.00;;;18.70;99.90;;;;;;5011135;28;20273;-89
2023/08/09 06:12:50;;;;;;;2.67;2.40;;;19.30;99.90;;;;;;5011121;28;20258;-85
2023/08/09 06:15:17;;;;;;;2.90;2.17;;;18.70;99.90;;;;;;5002381;28;20210;-83
2023/08/09 06:17:42;;;;;;;2.45;2.22;;;19.00;99.90;;;;;;5020878;28;20458;-83
2023/08/09 06:20:09;;;;;;;3.90;2.60;;;19.20;99.90;;;;;;5023599;28;20178;-83
2023/08/09 06:22:34;;;;;;;2.30;2.10;;;19.00;99.90;;;;;;5012911;28;20182;-83
2023/08/09 06:25:00;;;;;;;2.23;1.93;;;19.50;99.90;;;;;;5012974;28;20186;-86
2023/08/09 06:27:26;;;;;;;2.72;2.42;;;19.40;99.90;;;;;;5006258;28;20198;-86
2023/08/09 06:29:52;;;;;;;3.50;1.90;;;19.60;99.90;;;;;;5007571;28;20273;-86
2023/08/09 06:32:17;;;;;;;3.13;2.10;;;19.50;99.90;;;;;;5010591;28;20212;-87
2023/08/09 06:34:43;;;;;;;2.63;2.03;;;19.20;99.90;;;;;;5013553;28;20251;-87
2023/08/09 06:37:08;;;;;;;1.70;1.60;;;19.80;99.90;;;;;;5015042;28;20206;-87
2023/08/09 06:39:35;;;;;;;1.40;1.30;;;19.70;99.80;;;;;;5011744;28;20703;-86
2023/08/09 06:42:01;;;;;;;5.18;2.20;;;19.80;99.50;;;;;;5010665;28;20186;-86
2023/08/09 06:44:27;;;;;;;1.97;1.83;;;20.30;99.80;;;;;;5014727;28;20537;-86
2023/08/09 06:46:53;;;;;;;3.10;1.70;;;20.20;98.80;;;;;;5013157;28;20249;-88
2023/08/09 06:49:21;;;;;;;1.70;1.50;;;20.10;98.30;;;;;;5020337;28;20584;-88
2023/08/09 06:51:46;;;;;;;5.18;2.00;;;20.50;98.10;;;;;;5016899;28;20182;-88
2023/08/09 06:54:12;;;;;;;2.47;2.20;;;20.50;98.00;;;;;;5014253;28;20202;-88
2023/08/09 06:56:37;;;;;;;2.40;1.73;;;20.80;97.50;;;;;;5018567;28;20202;-88
2023/08/09 06:59:04;;;;;;;3.60;2.33;;;20.90;97.10;;;;;;5017291;28;20178;-88
2023/08/09 07:01:30;;;;;;;1.80;1.60;;;20.20;96.80;;;;;;5021094;28;20775;-85
2023/08/09 07:04:48;;;;;;;1.77;1.60;;;21.00;96.80;;;;;;5012027;28;20277;-85
2023/08/09 07:07:14;;;;;;;2.22;1.77;;;20.90;96.50;;;;;;5025221;23;20874;-64
2023/08/09 07:09:40;;;;;;;2.20;2.00;;;21.20;95.70;;;;;;5009146;28;20218;-64
2023/08/09 07:12:06;;;;;;;2.78;1.83;;;21.10;95.20;;;;;;5008892;28;20179;-63
2023/08/09 07:14:32;;;;;;;2.13;1.57;;;21.20;95.10;;;;;;5005451;28;20286;-63
2023/08/09 07:16:57;;;;;;;2.63;1.93;;;21.20;95.00;;;;;;5005878;28;20188;-63
2023/08/09 07:19:23;;;;;;;3.07;2.10;;;21.20;95.00;;;;;;5008816;28;20186;-63
2023/08/09 07:21:48;;;;;;;3.10;1.60;;;21.20;95.10;;;;;;5007394;28;20211;-62
2023/08/09 07:24:14;;;;;;;2.37;1.80;;;21.10;95.30;;;;;;5008799;28;20186;-65
2023/08/09 07:26:39;;;;;;;2.10;1.90;;;21.10;95.60;;;;;;5006459;28;20210;-64
2023/08/09 07:29:05;;;;;;;2.17;1.97;;;21.40;95.40;;;;;;5007446;28;20734;-64
2023/08/09 07:31:31;;;;;;;2.73;2.20;;;21.10;95.20;;;;;;5004331;28;20187;-64
2023/08/09 07:33:56;;;;;;;1.60;1.50;;;21.10;95.20;;;;;;5005573;28;20880;-63
2023/08/09 07:36:22;;;;;;;2.17;1.97;;;21.10;95.00;;;;;;5004745;28;20282;-64
2023/08/09 07:38:48;;;;;;;2.17;1.87;;;21.10;95.20;;;;;;5026073;28;20574;-63
2023/08/09 07:41:13;;;;;;;2.03;1.60;;;21.10;95.00;;;;;;5005001;28;20468;-61
2023/08/09 07:43:39;;;;;;;2.50;2.13;;;21.20;95.10;;;;;;5000910;28;20187;-65
2023/08/09 07:46:06;;;;;;;2.60;2.00;;;21.20;95.10;;;;;;5008154;28;20231;-64
2023/08/09 07:48:32;;;;;;;2.53;1.65;;;21.20;95.10;;;;;;5005064;28;20175;-66
2023/08/09 07:50:58;;;;;;;5.55;2.00;;;21.30;95.00;;;;;;5007584;28;20186;-63
2023/08/09 07:53:24;;;;;;;3.30;1.57;;;21.50;95.00;;;;;;5006011;28;20187;-63
2023/08/09 07:55:50;;;;;;;1.60;1.50;;;21.50;94.70;;;;;;5007661;28;20224;-62
2023/08/09 07:58:15;;;;;;;2.73;1.97;;;21.60;94.40;;;;;;5003660;28;20676;-62
2023/08/09 08:00:41;;;;;;;2.17;2.07;;;21.70;94.40;;;;;;5003911;28;20546;-63
2023/08/09 08:03:07;;;;;;;2.00;1.80;;;21.70;94.70;;;;;;5005168;28;20712;-63
2023/08/09 08:05:32;;;;;;;4.37;2.17;;;21.70;94.40;;;;;;5000110;28;20217;-63
2023/08/09 08:07:58;;;;;;;2.80;2.00;;;21.80;94.40;;;;;;5001327;28;20233;-63
2023/08/09 08:10:24;;;;;;;2.47;2.10;;;21.90;94.30;;;;;;4994347;28;22262;-64
2023/08/09 08:12:50;;;;;;;3.90;2.63;;;22.10;94.40;;;;;;5003954;28;20589;-64
2023/08/09 08:15:16;;;;;;;3.07;2.30;;;21.50;94.50;;;;;;5002591;28;20218;-64
2023/08/09 08:17:42;;;;;;;2.60;2.20;;;21.30;94.60;;;;;;5008196;28;20453;-64
2023/08/09 08:20:15;;;;;;;2.70;1.80;;;21.30;95.10;;;;;;5008408;28;20194;-64
2023/08/09 08:22:45;;;;;;;3.17;2.08;;;21.20;95.20;;;;;;5003024;28;20545;-63
2023/08/09 08:25:12;;;;;;;2.55;1.95;;;21.10;95.30;;;;;;5006004;28;20238;-64
2023/08/09 08:27:40;;;;;;;2.20;1.92;;;21.10;95.70;;;;;;5005704;28;20195;-64
2023/08/09 08:30:08;;;;;;;3.05;2.50;;;21.10;95.60;;;;;;5008609;28;20187;-64
2023/08/09 08:32:34;;;;;;;2.88;2.20;;;21.00;96.10;;;;;;5002679;28;20219;-64
2023/08/09 08:35:02;;;;;;;2.73;1.87;;;21.10;95.90;;;;;;5005241;28;20254;-64
2023/08/09 08:37:28;;;;;;;1.90;1.60;;;21.00;95.80;;;;;;5006116;28;20499;-64
2023/08/09 08:39:53;;;;;;;2.00;1.88;;;21.00;95.70;;;;;;5006281;28;20275;-64
2023/08/09 08:42:19;;;;;;;2.83;2.40;;;20.90;96.00;;;;;;5006448;28;20266;-64
2023/08/09 08:44:45;;;;;;;2.00;1.70;;;21.40;96.30;;;;;;5002781;28;20664;-64
2023/08/09 08:47:11;;;;;;;2.10;1.90;;;21.10;96.00;;;;;;5004999;28;20454;-64
2023/08/09 08:49:44;;;;;;;2.60;2.40;;;21.20;95.90;;;;;;5005889;28;20202;-64
2023/08/09 08:52:13;;;;;;;3.17;2.45;;;21.10;96.10;;;;;;5006460;28;20896;-63
2023/08/09 08:54:40;;;;;;;2.60;1.95;;;21.20;96.30;;;;;;5000626;28;20211;-64
2023/08/09 08:57:07;;;;;;;3.17;1.77;;;21.50;96.20;;;;;;5007411;28;20187;-63
2023/08/09 08:59:34;;;;;;;2.28;1.90;;;21.20;96.20;;;;;;5004773;28;20197;-64
2023/08/09 09:02:01;;;;;;;2.65;2.35;;;21.20;96.10;;;;;;5006829;28;20761;-64
2023/08/09 09:04:26;;;;;;;2.43;2.17;;;21.20;96.10;;;;;;5009551;28;20297;-64
2023/08/09 09:06:52;;;;;;;4.57;2.13;;;21.20;95.90;;;;;;5002717;28;20552;-64
2023/08/09 09:09:18;;;;;;;2.27;2.07;;;21.00;95.70;;;;;;5006691;28;20190;-63
2023/08/09 09:11:44;;;;;;;2.00;1.90;;;21.10;95.90;;;;;;5006854;28;20279;-64
2023/08/09 09:14:14;;;;;;;2.30;2.10;;;21.20;95.70;;;;;;4999392;28;20309;-63
2023/08/09 09:16:41;;;;;;;4.75;2.38;;;21.30;95.70;;;;;;5006444;28;21791;-63
2023/08/09 09:19:08;;;;;;;1.93;1.83;;;21.80;95.70;;;;;;5006618;28;20197;-64
2023/08/09 09:21:35;;;;;;;3.28;2.25;;;21.70;95.30;;;;;;5006750;28;20446;-63
2023/08/09 09:24:08;;;;;;;2.88;2.03;;;21.80;95.20;;;;;;5005523;28;20202;-63
2023/08/09 09:26:37;;;;;;;5.10;2.40;;;21.90;95.20;;;;;;5004653;28;20230;-63
2023/08/09 09:29:07;;;;;;;1.90;1.80;;;21.60;95.20;;;;;;5004727;28;20317;-63
2023/08/09 09:31:39;;;;;;;3.30;2.10;;;21.70;95.50;;;;;;5005196;28;20660;-63
2023/08/09 09:34:06;;;;;;;2.05;1.90;;;21.70;95.40;;;;;;5002832;28;20469;-64
2023/08/09 09:36:32;;;;;;;2.25;1.60;;;21.60;95.20;;;;;;5004250;28;20211;-64
2023/08/09 09:38:59;;;;;;;3.10;2.43;;;21.60;95.70;;;;;;5006797;28;20188;-69
2023/08/09 09:41:25;;;;;;;2.42;2.22;;;21.50;95.40;;;;;;5005779;28;20434;-69
2023/08/09 09:43:51;;;;;;;2.20;2.00;;;21.60;95.50;;;;;;5001742;28;20187;-68
2023/08/09 09:46:25;;;;;;;2.47;2.27;;;21.90;95.40;;;;;;5001876;28;20457;-67
2023/08/09 09:49:02;;;;;;;2.15;1.90;;;21.60;95.40;;;;;;5002040;28;20490;-69
2023/08/09 09:51:28;;;;;;;2.08;1.88;;;21.50;95.50;;;;;;5006276;28;20294;-66
2023/08/09 09:53:54;;;;;;;3.07;2.47;;;21.40;95.70;;;;;;5003915;28;20183;-67
2023/08/09 09:56:19;;;;;;;2.23;2.00;;;21.50;95.80;;;;;;4998183;28;20473;-65
2023/08/09 09:58:46;;;;;;;2.63;2.13;;;21.60;95.60;;;;;;4999527;28;20187;-67
2023/08/09 10:01:25;;;;;;;3.45;2.20;;;21.60;95.40;;;;;;4999792;28;20656;-70
2023/08/09 10:04:00;;;;;;;3.20;2.00;;;21.80;95.30;;;;;;4999460;28;20270;-67
2023/08/09 10:06:29;;;;;;;2.97;2.22;;;21.90;95.20;;;;;;5020776;28;20214;-67
2023/08/09 10:08:56;;;;;;;2.80;2.28;;;21.90;95.40;;;;;;5003153;28;20205;-67
2023/08/09 10:11:24;;;;;;;3.67;2.50;;;21.90;95.30;;;;;;5004710;28;20182;-67
2023/08/09 10:13:51;;;;;;;2.35;1.95;;;21.90;95.40;;;;;;5000993;28;20187;-67
2023/08/09 10:16:19;;;;;;;2.30;2.10;;;21.90;95.10;;;;;;5006776;28;20211;-69
2023/08/09 10:18:52;;;;;;;2.27;2.07;;;21.90;95.20;;;;;;5002992;28;20210;-67
2023/08/09 10:21:19;;;;;;;2.40;2.20;;;21.80;95.20;;;;;;5008108;28;20453;-67
2023/08/09 10:24:08;;;;;;;2.85;2.28;;;21.80;95.10;;;;;;5003254;28;20570;-69
2023/08/09 10:26:36;;;;;;;4.80;2.00;;;21.90;95.20;;;;;;4990031;28;20199;-67
2023/08/09 10:29:13;;;;;;;3.10;2.40;;;21.90;94.80;;;;;;5005436;28;20507;-68
2023/08/09 10:31:46;;;;;;;2.10;1.90;;;21.90;95.10;;;;;;5004596;28;20265;-67
2023/08/09 10:34:12;;;;;;;4.40;2.15;;;21.80;95.10;;;;;;5005440;28;20265;-67
2023/08/09 10:36:37;;;;;;;2.40;1.87;;;21.70;95.20;;;;;;5000485;28;20199;-66
2023/08/09 10:39:14;;;;;;;2.70;2.30;;;21.60;95.50;;;;;;5006091;28;20234;-67
2023/08/09 10:41:59;;;;;;;1.73;1.60;;;21.50;95.50;;;;;;5003569;28;20190;-68
2023/08/09 10:44:39;;;;;;;3.67;2.03;;;21.60;95.80;;;;;;5004880;28;20185;-68
2023/08/09 10:47:11;;;;;;;1.80;1.70;;;21.60;95.80;;;;;;5003151;28;20187;-69
2023/08/09 10:49:49;;;;;;;3.07;2.10;;;21.70;96.10;;;;;;5022616;28;20477;-68
2023/08/09 10:52:35;;;;;;;3.75;1.90;;;21.70;95.80;;;;;;5006620;28;20495;-67
2023/08/09 10:55:19;;;;;;;2.70;2.50;;;21.90;95.60;;;;;;5004393;28;20276;-67
2023/08/09 10:57:50;;;;;;;3.03;2.60;;;22.10;95.30;;;;;;5016963;28;20446;-67
2023/08/09 11:00:18;;;;;;;2.33;2.10;;;22.40;94.80;;;;;;5004652;28;20445;-67
2023/08/09 11:02:50;;;;;;;2.53;2.13;;;22.40;94.80;;;;;;5007463;28;20946;-67
2023/08/09 11:05:19;;;;;;;2.17;1.93;;;22.50;95.00;;;;;;5007533;28;20493;-68
2023/08/09 11:07:49;;;;;;;4.03;2.07;;;22.60;94.70;;;;;;5002754;28;20453;-67
2023/08/09 11:10:17;;;;;;;2.43;2.23;;;22.80;94.50;;;;;;5005650;28;20433;-71
2023/08/09 11:12:44;;;;;;;2.13;1.93;;;23.00;94.20;;;;;;5005453;28;20532;-70
2023/08/09 11:15:11;;;;;;;2.97;2.20;;;23.00;94.10;;;;;;5007573;28;20469;-67
2023/08/09 11:17:46;;;;;;;2.67;2.47;;;22.70;93.90;;;;;;5007469;28;20446;-64
2023/08/09 11:20:13;;;;;;;3.37;2.47;;;22.90;94.30;;;;;;5008984;28;20596;-65
2023/08/09 11:22:44;;;;;;;2.43;2.17;;;22.80;94.40;;;;;;5004057;28;20441;-63
2023/08/09 11:25:09;;;;;;;2.47;2.27;;;22.90;94.20;;;;;;5005558;28;21698;-62
2023/08/09 11:27:39;;;;;;;2.47;1.97;;;22.90;94.20;;;;;;5002134;28;20549;-62
2023/08/09 11:30:08;;;;;;;2.13;2.03;;;22.80;94.30;;;;;;5008908;28;20183;-62
2023/08/09 11:32:34;;;;;;;2.03;1.70;;;22.70;94.10;;;;;;5008675;28;20575;-62
2023/08/09 11:35:00;;;;;;;1.73;1.60;;;23.00;94.20;;;;;;5008316;28;20477;-62
2023/08/09 11:37:27;;;;;;;1.90;1.70;;;23.30;93.50;;;;;;5003933;28;20445;-63
2023/08/09 11:39:53;;;;;;;2.33;1.80;;;23.50;93.40;;;;;;5002767;28;20186;-62
2023/08/09 11:42:19;;;;;;;2.20;2.00;;;23.80;93.20;;;;;;5009013;28;20442;-64
2023/08/09 11:44:44;;;;;;;2.90;2.03;;;23.80;92.80;;;;;;5002409;28;20179;-63
2023/08/09 11:47:10;;;;;;;3.00;1.80;;;23.80;92.80;;;;;;5005997;28;20186;-63
2023/08/09 11:49:36;;;;;;;2.40;2.20;;;23.80;92.70;;;;;;5004080;28;20198;-65
2023/08/09 11:52:02;;;;;;;3.20;2.03;;;23.80;92.70;;;;;;5006358;28;20825;-62
2023/08/09 11:54:30;;;;;;;4.30;1.80;;;23.70;92.50;;;;;;5003795;28;20653;-64
2023/08/09 11:56:56;;;;;;;2.20;2.00;;;23.70;92.30;;;;;;5005783;28;20812;-67
2023/08/09 11:59:23;;;;;;;3.03;2.17;;;23.90;92.20;;;;;;5005006;28;20441;-67
2023/08/09 12:01:51;;;;;;;2.80;2.47;;;24.00;91.80;;;;;;5005714;28;20450;-64
2023/08/09 12:04:23;;;;;;;2.70;2.23;;;23.60;92.00;;;;;;5003790;28;20528;-64
2023/08/09 12:06:51;;;;;;;2.50;2.27;;;23.50;92.40;;;;;;5001879;28;20481;-65
2023/08/09 12:09:34;;;;;;;2.77;2.40;;;23.40;92.60;;;;;;5005672;28;20947;-65
2023/08/09 12:12:18;;;;;;;2.50;2.30;;;23.60;92.50;;;;;;5006004;28;20484;-66
2023/08/09 12:14:53;;;;;;;2.63;2.20;;;23.80;92.30;;;;;;5004781;28;20556;-67
2023/08/09 12:17:24;;;;;;;2.10;1.90;;;23.80;92.10;;;;;;5005925;28;20441;-66
2023/08/09 12:19:52;;;;;;;3.87;3.57;;;23.80;91.90;;;;;;5002991;28;20799;-68
2023/08/09 12:22:18;;;;;;;3.53;1.90;;;23.70;91.90;;;;;;5004455;28;20438;-68
2023/08/09 12:24:44;;;;;;;2.20;2.00;;;23.70;92.00;;;;;;5004300;28;20544;-68
2023/08/09 12:27:09;;;;;;;1.87;1.73;;;23.20;92.10;;;;;;5006878;28;20313;-67
2023/08/09 12:29:35;;;;;;;3.10;2.47;;;23.50;92.60;;;;;;5004611;28;20214;-70
2023/08/09 12:32:01;;;;;;;2.93;2.63;;;23.60;92.80;;;;;;5003225;28;20384;-67
2023/08/09 12:34:27;;;;;;;1.93;1.83;;;23.70;92.70;;;;;;5007413;28;20474;-67
2023/08/09 12:36:54;;;;;;;3.77;1.90;;;23.70;92.60;;;;;;5002034;28;20461;-68
2023/08/09 12:39:20;;;;;;;2.17;1.97;;;23.70;92.50;;;;;;5004497;28;20182;-67
2023/08/09 12:41:46;;;;;;;2.17;2.00;;;23.60;92.80;;;;;;5006016;28;20436;-68
2023/08/09 12:44:11;;;;;;;4.30;2.63;;;23.60;91.90;;;;;;5003242;28;21027;-67
2023/08/09 12:46:39;;;;;;;2.20;2.00;;;23.70;92.10;;;;;;5004808;28;20568;-67
2023/08/09 12:49:06;;;;;;;2.50;1.90;;;23.70;92.10;;;;;;5004235;28;20186;-70